sensor_id;sensor_type;location;lat;lon;timestamp;P1;durP1;ratioP1;P2;durP2;ratioP2
48635;SDS011;34429;52.332;5.614;2022-12-18T00:02:11;79.70;;;27.30;;
48635;SDS011;34429;52.332;5.614;2022-12-18T00:04:40;70.47;;;26.85;;
48635;SDS011;34429;52.332;5.614;2022-12-18T00:07:08;72.85;;;25.27;;
48635;SDS011;34429;52.332;5.614;2022-12-18T00:09:37;83.60;;;28.00;;
48635;SDS011;34429;52.332;5.614;2022-12-18T00:12:05;74.97;;;27.07;;
48635;SDS011;34429;52.332;5.614;2022-12-18T00:14:34;73.95;;;26.35;;
48635;SDS011;34429;52.332;5.614;2022-12-18T00:17:03;81.43;;;28.10;;
48635;SDS011;34429;52.332;5.614;2022-12-18T00:19:33;84.55;;;30.02;;
48635;SDS011;34429;52.332;5.614;2022-12-18T00:22:02;81.57;;;28.17;;
48635;SDS011;34429;52.332;5.614;2022-12-18T00:24:31;76.47;;;28.58;;
48635;SDS011;34429;52.332;5.614;2022-12-18T00:26:59;76.00;;;28.83;;
48635;SDS011;34429;52.332;5.614;2022-12-18T00:29:28;88.47;;;30.02;;
48635;SDS011;34429;52.332;5.614;2022-12-18T00:31:56;72.95;;;27.92;;
48635;SDS011;34429;52.332;5.614;2022-12-18T00:34:24;77.85;;;29.08;;
48635;SDS011;34429;52.332;5.614;2022-12-18T00:36:55;78.20;;;26.27;;
48635;SDS011;34429;52.332;5.614;2022-12-18T00:39:24;85.53;;;29.20;;
48635;SDS011;34429;52.332;5.614;2022-12-18T00:41:52;85.78;;;29.58;;
48635;SDS011;34429;52.332;5.614;2022-12-18T00:44:33;81.97;;;29.13;;
48635;SDS011;34429;52.332;5.614;2022-12-18T00:47:03;74.50;;;26.95;;
48635;SDS011;34429;52.332;5.614;2022-12-18T00:49:32;81.57;;;27.63;;
48635;SDS011;34429;52.332;5.614;2022-12-18T00:52:03;84.50;;;28.40;;
48635;SDS011;34429;52.332;5.614;2022-12-18T00:54:31;66.05;;;26.65;;
48635;SDS011;34429;52.332;5.614;2022-12-18T00:56:59;68.80;;;26.08;;
48635;SDS011;34429;52.332;5.614;2022-12-18T00:59:28;72.65;;;28.23;;
48635;SDS011;34429;52.332;5.614;2022-12-18T01:01:56;73.70;;;27.55;;
48635;SDS011;34429;52.332;5.614;2022-12-18T01:04:24;76.43;;;26.05;;
48635;SDS011;34429;52.332;5.614;2022-12-18T01:06:53;76.60;;;28.50;;
48635;SDS011;34429;52.332;5.614;2022-12-18T01:09:24;67.45;;;26.90;;
48635;SDS011;34429;52.332;5.614;2022-12-18T01:11:52;65.78;;;26.08;;
48635;SDS011;34429;52.332;5.614;2022-12-18T01:14:21;75.93;;;28.02;;
48635;SDS011;34429;52.332;5.614;2022-12-18T01:16:49;70.13;;;27.05;;
48635;SDS011;34429;52.332;5.614;2022-12-18T01:19:17;71.75;;;26.02;;
48635;SDS011;34429;52.332;5.614;2022-12-18T01:21:46;72.07;;;26.10;;
48635;SDS011;34429;52.332;5.614;2022-12-18T01:24:16;77.13;;;26.95;;
48635;SDS011;34429;52.332;5.614;2022-12-18T01:26:47;71.85;;;25.20;;
48635;SDS011;34429;52.332;5.614;2022-12-18T01:29:16;76.90;;;26.63;;
48635;SDS011;34429;52.332;5.614;2022-12-18T01:31:44;77.95;;;26.95;;
48635;SDS011;34429;52.332;5.614;2022-12-18T01:34:12;74.32;;;27.80;;
48635;SDS011;34429;52.332;5.614;2022-12-18T01:36:40;83.40;;;29.10;;
48635;SDS011;34429;52.332;5.614;2022-12-18T01:39:10;79.93;;;26.67;;
48635;SDS011;34429;52.332;5.614;2022-12-18T01:41:40;77.43;;;27.73;;
48635;SDS011;34429;52.332;5.614;2022-12-18T01:47:28;75.82;;;26.05;;
48635;SDS011;34429;52.332;5.614;2022-12-18T01:50:06;78.50;;;28.10;;
48635;SDS011;34429;52.332;5.614;2022-12-18T01:52:51;82.38;;;28.05;;
48635;SDS011;34429;52.332;5.614;2022-12-18T01:55:22;79.97;;;27.20;;
48635;SDS011;34429;52.332;5.614;2022-12-18T01:57:53;73.15;;;28.27;;
48635;SDS011;34429;52.332;5.614;2022-12-18T02:00:25;69.47;;;26.38;;
48635;SDS011;34429;52.332;5.614;2022-12-18T02:02:55;75.63;;;27.42;;
48635;SDS011;34429;52.332;5.614;2022-12-18T02:05:26;77.57;;;25.55;;
48635;SDS011;34429;52.332;5.614;2022-12-18T02:08:05;74.88;;;28.42;;
48635;SDS011;34429;52.332;5.614;2022-12-18T02:10:41;67.80;;;25.63;;
48635;SDS011;34429;52.332;5.614;2022-12-18T02:13:16;71.22;;;25.63;;
48635;SDS011;34429;52.332;5.614;2022-12-18T02:15:57;65.20;;;24.77;;
48635;SDS011;34429;52.332;5.614;2022-12-18T02:18:32;68.57;;;25.23;;
48635;SDS011;34429;52.332;5.614;2022-12-18T02:21:07;70.97;;;25.75;;
48635;SDS011;34429;52.332;5.614;2022-12-18T02:23:47;73.50;;;26.40;;
48635;SDS011;34429;52.332;5.614;2022-12-18T02:26:28;63.90;;;23.63;;
48635;SDS011;34429;52.332;5.614;2022-12-18T02:29:00;62.78;;;26.42;;
48635;SDS011;34429;52.332;5.614;2022-12-18T02:31:35;63.55;;;24.05;;
48635;SDS011;34429;52.332;5.614;2022-12-18T02:34:08;62.55;;;24.70;;
48635;SDS011;34429;52.332;5.614;2022-12-18T02:36:40;61.30;;;24.00;;
48635;SDS011;34429;52.332;5.614;2022-12-18T02:39:11;67.30;;;26.40;;
48635;SDS011;34429;52.332;5.614;2022-12-18T02:41:45;60.20;;;24.92;;
48635;SDS011;34429;52.332;5.614;2022-12-18T02:44:15;60.72;;;24.70;;
48635;SDS011;34429;52.332;5.614;2022-12-18T02:46:43;59.60;;;24.23;;
48635;SDS011;34429;52.332;5.614;2022-12-18T02:49:19;62.10;;;26.42;;
48635;SDS011;34429;52.332;5.614;2022-12-18T02:52:02;61.58;;;24.63;;
48635;SDS011;34429;52.332;5.614;2022-12-18T02:54:41;68.40;;;24.65;;
48635;SDS011;34429;52.332;5.614;2022-12-18T02:57:23;61.17;;;25.10;;
48635;SDS011;34429;52.332;5.614;2022-12-18T03:00:04;63.40;;;24.67;;
48635;SDS011;34429;52.332;5.614;2022-12-18T03:02:36;60.22;;;23.42;;
48635;SDS011;34429;52.332;5.614;2022-12-18T03:05:11;59.85;;;23.75;;
48635;SDS011;34429;52.332;5.614;2022-12-18T03:07:43;66.55;;;25.55;;
48635;SDS011;34429;52.332;5.614;2022-12-18T03:10:18;65.30;;;24.38;;
48635;SDS011;34429;52.332;5.614;2022-12-18T03:12:54;65.00;;;23.98;;
48635;SDS011;34429;52.332;5.614;2022-12-18T03:15:29;62.25;;;24.95;;
48635;SDS011;34429;52.332;5.614;2022-12-18T03:18:02;65.35;;;25.58;;
48635;SDS011;34429;52.332;5.614;2022-12-18T03:20:35;61.53;;;23.33;;
48635;SDS011;34429;52.332;5.614;2022-12-18T03:23:09;67.40;;;25.85;;
48635;SDS011;34429;52.332;5.614;2022-12-18T03:25:41;65.53;;;24.42;;
48635;SDS011;34429;52.332;5.614;2022-12-18T03:28:14;58.50;;;22.95;;
48635;SDS011;34429;52.332;5.614;2022-12-18T03:30:47;59.55;;;24.48;;
48635;SDS011;34429;52.332;5.614;2022-12-18T03:33:19;56.90;;;24.73;;
48635;SDS011;34429;52.332;5.614;2022-12-18T03:35:53;56.92;;;22.73;;
48635;SDS011;34429;52.332;5.614;2022-12-18T03:38:22;62.38;;;24.10;;
48635;SDS011;34429;52.332;5.614;2022-12-18T03:40:53;57.30;;;23.95;;
48635;SDS011;34429;52.332;5.614;2022-12-18T03:43:34;56.72;;;22.80;;
48635;SDS011;34429;52.332;5.614;2022-12-18T03:46:08;63.65;;;23.08;;
48635;SDS011;34429;52.332;5.614;2022-12-18T03:48:43;61.05;;;24.75;;
48635;SDS011;34429;52.332;5.614;2022-12-18T03:51:15;56.30;;;22.77;;
48635;SDS011;34429;52.332;5.614;2022-12-18T03:53:51;55.97;;;23.30;;
48635;SDS011;34429;52.332;5.614;2022-12-18T03:56:23;62.45;;;24.42;;
48635;SDS011;34429;52.332;5.614;2022-12-18T03:58:57;55.67;;;23.13;;
48635;SDS011;34429;52.332;5.614;2022-12-18T04:01:30;67.60;;;26.70;;
48635;SDS011;34429;52.332;5.614;2022-12-18T04:04:01;60.72;;;26.33;;
48635;SDS011;34429;52.332;5.614;2022-12-18T04:06:32;58.13;;;23.73;;
48635;SDS011;34429;52.332;5.614;2022-12-18T04:09:01;60.72;;;25.52;;
48635;SDS011;34429;52.332;5.614;2022-12-18T04:11:30;61.28;;;24.88;;
48635;SDS011;34429;52.332;5.614;2022-12-18T04:14:01;57.03;;;24.17;;
48635;SDS011;34429;52.332;5.614;2022-12-18T04:16:29;48.97;;;22.27;;
48635;SDS011;34429;52.332;5.614;2022-12-18T04:18:57;54.47;;;21.90;;
48635;SDS011;34429;52.332;5.614;2022-12-18T04:21:26;50.63;;;22.38;;
48635;SDS011;34429;52.332;5.614;2022-12-18T04:23:54;52.38;;;23.42;;
48635;SDS011;34429;52.332;5.614;2022-12-18T04:26:23;56.63;;;22.45;;
48635;SDS011;34429;52.332;5.614;2022-12-18T04:28:51;53.40;;;23.23;;
48635;SDS011;34429;52.332;5.614;2022-12-18T04:31:22;48.40;;;21.45;;
48635;SDS011;34429;52.332;5.614;2022-12-18T04:33:50;50.03;;;22.40;;
48635;SDS011;34429;52.332;5.614;2022-12-18T04:36:18;50.88;;;23.45;;
48635;SDS011;34429;52.332;5.614;2022-12-18T04:38:47;50.88;;;21.25;;
48635;SDS011;34429;52.332;5.614;2022-12-18T04:41:15;46.45;;;20.17;;
48635;SDS011;34429;52.332;5.614;2022-12-18T04:43:43;54.05;;;22.27;;
48635;SDS011;34429;52.332;5.614;2022-12-18T04:46:12;42.85;;;20.45;;
48635;SDS011;34429;52.332;5.614;2022-12-18T04:48:44;46.47;;;21.10;;
48635;SDS011;34429;52.332;5.614;2022-12-18T04:51:13;51.28;;;22.67;;
48635;SDS011;34429;52.332;5.614;2022-12-18T04:53:42;44.38;;;20.60;;
48635;SDS011;34429;52.332;5.614;2022-12-18T04:56:11;47.50;;;20.27;;
48635;SDS011;34429;52.332;5.614;2022-12-18T04:58:42;46.13;;;19.40;;
48635;SDS011;34429;52.332;5.614;2022-12-18T05:01:12;47.83;;;20.63;;
48635;SDS011;34429;52.332;5.614;2022-12-18T05:03:44;42.30;;;20.33;;
48635;SDS011;34429;52.332;5.614;2022-12-18T05:06:13;44.47;;;20.20;;
48635;SDS011;34429;52.332;5.614;2022-12-18T05:08:41;44.23;;;20.87;;
48635;SDS011;34429;52.332;5.614;2022-12-18T05:11:11;38.65;;;19.55;;
48635;SDS011;34429;52.332;5.614;2022-12-18T05:13:41;41.67;;;19.10;;
48635;SDS011;34429;52.332;5.614;2022-12-18T05:16:09;42.15;;;19.90;;
48635;SDS011;34429;52.332;5.614;2022-12-18T05:18:38;40.80;;;18.20;;
48635;SDS011;34429;52.332;5.614;2022-12-18T05:21:09;39.10;;;18.95;;
48635;SDS011;34429;52.332;5.614;2022-12-18T05:23:38;35.47;;;17.60;;
48635;SDS011;34429;52.332;5.614;2022-12-18T05:26:06;41.13;;;18.02;;
48635;SDS011;34429;52.332;5.614;2022-12-18T05:28:35;38.75;;;17.20;;
48635;SDS011;34429;52.332;5.614;2022-12-18T05:31:03;38.07;;;18.50;;
48635;SDS011;34429;52.332;5.614;2022-12-18T05:33:33;38.40;;;17.52;;
48635;SDS011;34429;52.332;5.614;2022-12-18T05:36:03;36.97;;;17.10;;
48635;SDS011;34429;52.332;5.614;2022-12-18T05:38:36;35.00;;;16.70;;
48635;SDS011;34429;52.332;5.614;2022-12-18T05:41:06;39.58;;;17.90;;
48635;SDS011;34429;52.332;5.614;2022-12-18T05:46:04;34.30;;;17.55;;
48635;SDS011;34429;52.332;5.614;2022-12-18T05:48:33;37.55;;;16.95;;
48635;SDS011;34429;52.332;5.614;2022-12-18T05:51:06;34.25;;;17.05;;
48635;SDS011;34429;52.332;5.614;2022-12-18T05:53:38;30.40;;;15.75;;
48635;SDS011;34429;52.332;5.614;2022-12-18T05:56:07;34.30;;;15.45;;
48635;SDS011;34429;52.332;5.614;2022-12-18T05:58:37;33.22;;;16.50;;
48635;SDS011;34429;52.332;5.614;2022-12-18T06:01:06;35.42;;;16.58;;
48635;SDS011;34429;52.332;5.614;2022-12-18T06:03:36;34.05;;;17.55;;
48635;SDS011;34429;52.332;5.614;2022-12-18T06:06:12;33.70;;;15.88;;
48635;SDS011;34429;52.332;5.614;2022-12-18T06:08:44;32.53;;;15.60;;
48635;SDS011;34429;52.332;5.614;2022-12-18T06:11:13;34.65;;;15.75;;
48635;SDS011;34429;52.332;5.614;2022-12-18T06:13:43;32.55;;;16.40;;
48635;SDS011;34429;52.332;5.614;2022-12-18T06:16:12;33.30;;;16.20;;
48635;SDS011;34429;52.332;5.614;2022-12-18T06:18:40;34.65;;;16.20;;
48635;SDS011;34429;52.332;5.614;2022-12-18T06:21:08;31.48;;;15.63;;
48635;SDS011;34429;52.332;5.614;2022-12-18T06:23:37;30.92;;;15.48;;
48635;SDS011;34429;52.332;5.614;2022-12-18T06:26:09;28.50;;;14.77;;
48635;SDS011;34429;52.332;5.614;2022-12-18T06:28:39;31.73;;;15.07;;
48635;SDS011;34429;52.332;5.614;2022-12-18T06:31:07;29.15;;;14.88;;
48635;SDS011;34429;52.332;5.614;2022-12-18T06:33:36;29.35;;;15.32;;
48635;SDS011;34429;52.332;5.614;2022-12-18T06:36:06;27.88;;;14.15;;
48635;SDS011;34429;52.332;5.614;2022-12-18T06:38:37;30.35;;;15.48;;
48635;SDS011;34429;52.332;5.614;2022-12-18T06:41:11;29.27;;;14.48;;
48635;SDS011;34429;52.332;5.614;2022-12-18T06:43:41;31.02;;;16.23;;
48635;SDS011;34429;52.332;5.614;2022-12-18T06:46:10;29.65;;;15.75;;
48635;SDS011;34429;52.332;5.614;2022-12-18T06:48:39;30.02;;;15.25;;
48635;SDS011;34429;52.332;5.614;2022-12-18T06:51:07;29.23;;;15.43;;
48635;SDS011;34429;52.332;5.614;2022-12-18T06:53:36;29.80;;;16.10;;
48635;SDS011;34429;52.332;5.614;2022-12-18T06:56:05;30.77;;;16.10;;
48635;SDS011;34429;52.332;5.614;2022-12-18T06:58:37;26.17;;;14.43;;
48635;SDS011;34429;52.332;5.614;2022-12-18T07:01:06;32.42;;;16.42;;
48635;SDS011;34429;52.332;5.614;2022-12-18T07:03:36;29.52;;;16.35;;
48635;SDS011;34429;52.332;5.614;2022-12-18T07:06:05;29.83;;;16.38;;
48635;SDS011;34429;52.332;5.614;2022-12-18T07:08:40;29.70;;;15.60;;
48635;SDS011;34429;52.332;5.614;2022-12-18T07:11:08;32.08;;;16.52;;
48635;SDS011;34429;52.332;5.614;2022-12-18T07:13:39;30.85;;;16.20;;
48635;SDS011;34429;52.332;5.614;2022-12-18T07:16:08;25.20;;;15.15;;
48635;SDS011;34429;52.332;5.614;2022-12-18T07:18:38;29.48;;;16.45;;
48635;SDS011;34429;52.332;5.614;2022-12-18T07:21:07;33.92;;;16.73;;
48635;SDS011;34429;52.332;5.614;2022-12-18T07:23:36;35.25;;;17.80;;
48635;SDS011;34429;52.332;5.614;2022-12-18T07:26:05;34.28;;;16.63;;
48635;SDS011;34429;52.332;5.614;2022-12-18T07:28:35;33.03;;;17.02;;
48635;SDS011;34429;52.332;5.614;2022-12-18T07:33:36;29.35;;;15.68;;
48635;SDS011;34429;52.332;5.614;2022-12-18T07:36:05;37.25;;;17.17;;
48635;SDS011;34429;52.332;5.614;2022-12-18T07:38:35;32.45;;;16.35;;
48635;SDS011;34429;52.332;5.614;2022-12-18T07:41:04;32.05;;;17.40;;
48635;SDS011;34429;52.332;5.614;2022-12-18T07:43:34;33.05;;;16.80;;
48635;SDS011;34429;52.332;5.614;2022-12-18T07:46:02;30.42;;;17.23;;
48635;SDS011;34429;52.332;5.614;2022-12-18T07:48:34;33.58;;;18.35;;
48635;SDS011;34429;52.332;5.614;2022-12-18T07:51:03;34.05;;;17.77;;
48635;SDS011;34429;52.332;5.614;2022-12-18T07:53:33;31.10;;;16.13;;
48635;SDS011;34429;52.332;5.614;2022-12-18T07:56:03;32.42;;;16.27;;
48635;SDS011;34429;52.332;5.614;2022-12-18T07:58:34;30.60;;;17.55;;
48635;SDS011;34429;52.332;5.614;2022-12-18T08:01:03;30.42;;;16.30;;
48635;SDS011;34429;52.332;5.614;2022-12-18T08:03:35;32.55;;;17.90;;
48635;SDS011;34429;52.332;5.614;2022-12-18T08:06:06;35.72;;;16.77;;
48635;SDS011;34429;52.332;5.614;2022-12-18T08:08:36;32.75;;;17.42;;
48635;SDS011;34429;52.332;5.614;2022-12-18T08:11:06;33.05;;;16.95;;
48635;SDS011;34429;52.332;5.614;2022-12-18T08:13:34;31.50;;;16.50;;
48635;SDS011;34429;52.332;5.614;2022-12-18T08:16:04;30.38;;;16.20;;
48635;SDS011;34429;52.332;5.614;2022-12-18T08:18:36;32.20;;;16.63;;
48635;SDS011;34429;52.332;5.614;2022-12-18T08:21:08;29.48;;;14.93;;
48635;SDS011;34429;52.332;5.614;2022-12-18T08:23:37;31.67;;;15.98;;
48635;SDS011;34429;52.332;5.614;2022-12-18T08:26:06;32.55;;;14.63;;
48635;SDS011;34429;52.332;5.614;2022-12-18T08:28:35;33.17;;;15.82;;
48635;SDS011;34429;52.332;5.614;2022-12-18T08:31:03;34.37;;;16.33;;
48635;SDS011;34429;52.332;5.614;2022-12-18T08:33:32;29.00;;;14.88;;
48635;SDS011;34429;52.332;5.614;2022-12-18T08:38:33;31.70;;;15.27;;
48635;SDS011;34429;52.332;5.614;2022-12-18T08:41:02;32.67;;;15.57;;
48635;SDS011;34429;52.332;5.614;2022-12-18T08:43:31;29.55;;;15.40;;
48635;SDS011;34429;52.332;5.614;2022-12-18T08:46:12;27.55;;;14.32;;
48635;SDS011;34429;52.332;5.614;2022-12-18T08:48:43;30.13;;;15.32;;
48635;SDS011;34429;52.332;5.614;2022-12-18T08:51:15;28.38;;;13.73;;
48635;SDS011;34429;52.332;5.614;2022-12-18T08:53:44;28.52;;;12.80;;
48635;SDS011;34429;52.332;5.614;2022-12-18T08:56:14;29.05;;;14.02;;
48635;SDS011;34429;52.332;5.614;2022-12-18T09:01:11;30.30;;;14.15;;
48635;SDS011;34429;52.332;5.614;2022-12-18T09:03:40;27.98;;;14.43;;
48635;SDS011;34429;52.332;5.614;2022-12-18T09:06:09;28.80;;;14.00;;
48635;SDS011;34429;52.332;5.614;2022-12-18T09:08:43;24.42;;;13.38;;
48635;SDS011;34429;52.332;5.614;2022-12-18T09:11:13;26.35;;;13.82;;
48635;SDS011;34429;52.332;5.614;2022-12-18T09:13:42;25.65;;;13.30;;
48635;SDS011;34429;52.332;5.614;2022-12-18T09:16:14;25.40;;;13.57;;
48635;SDS011;34429;52.332;5.614;2022-12-18T09:18:42;29.67;;;13.83;;
48635;SDS011;34429;52.332;5.614;2022-12-18T09:21:11;30.08;;;14.15;;
48635;SDS011;34429;52.332;5.614;2022-12-18T09:23:43;26.13;;;12.57;;
48635;SDS011;34429;52.332;5.614;2022-12-18T09:26:12;26.13;;;13.48;;
48635;SDS011;34429;52.332;5.614;2022-12-18T09:28:40;26.90;;;12.40;;
48635;SDS011;34429;52.332;5.614;2022-12-18T09:31:10;32.05;;;15.30;;
48635;SDS011;34429;52.332;5.614;2022-12-18T09:33:44;25.52;;;12.95;;
48635;SDS011;34429;52.332;5.614;2022-12-18T09:36:13;27.07;;;13.17;;
48635;SDS011;34429;52.332;5.614;2022-12-18T09:38:45;29.73;;;14.95;;
48635;SDS011;34429;52.332;5.614;2022-12-18T09:41:17;30.23;;;13.82;;
48635;SDS011;34429;52.332;5.614;2022-12-18T09:44:00;28.52;;;13.90;;
48635;SDS011;34429;52.332;5.614;2022-12-18T09:46:32;27.92;;;12.95;;
48635;SDS011;34429;52.332;5.614;2022-12-18T09:49:03;28.67;;;13.68;;
48635;SDS011;34429;52.332;5.614;2022-12-18T09:51:39;27.50;;;13.48;;
48635;SDS011;34429;52.332;5.614;2022-12-18T09:54:15;25.23;;;12.98;;
48635;SDS011;34429;52.332;5.614;2022-12-18T09:56:48;22.38;;;12.35;;
48635;SDS011;34429;52.332;5.614;2022-12-18T09:59:18;34.25;;;14.77;;
48635;SDS011;34429;52.332;5.614;2022-12-18T10:01:51;34.63;;;14.18;;
48635;SDS011;34429;52.332;5.614;2022-12-18T10:04:20;26.15;;;12.43;;
48635;SDS011;34429;52.332;5.614;2022-12-18T10:06:50;28.88;;;12.18;;
48635;SDS011;34429;52.332;5.614;2022-12-18T10:09:28;24.45;;;12.32;;
48635;SDS011;34429;52.332;5.614;2022-12-18T10:12:03;29.00;;;12.47;;
48635;SDS011;34429;52.332;5.614;2022-12-18T10:14:39;26.10;;;13.02;;
48635;SDS011;34429;52.332;5.614;2022-12-18T10:17:17;19.63;;;11.10;;
48635;SDS011;34429;52.332;5.614;2022-12-18T10:22:27;26.75;;;12.60;;
48635;SDS011;34429;52.332;5.614;2022-12-18T10:25:14;26.73;;;10.93;;
48635;SDS011;34429;52.332;5.614;2022-12-18T10:27:52;23.17;;;11.75;;
48635;SDS011;34429;52.332;5.614;2022-12-18T10:30:24;20.38;;;10.55;;
48635;SDS011;34429;52.332;5.614;2022-12-18T10:32:53;20.77;;;10.70;;
48635;SDS011;34429;52.332;5.614;2022-12-18T10:35:23;23.10;;;10.90;;
48635;SDS011;34429;52.332;5.614;2022-12-18T10:38:04;24.30;;;11.65;;
48635;SDS011;34429;52.332;5.614;2022-12-18T10:40:51;21.73;;;11.60;;
48635;SDS011;34429;52.332;5.614;2022-12-18T10:43:22;25.02;;;11.90;;
48635;SDS011;34429;52.332;5.614;2022-12-18T10:46:01;26.17;;;11.85;;
48635;SDS011;34429;52.332;5.614;2022-12-18T10:48:49;22.38;;;10.68;;
48635;SDS011;34429;52.332;5.614;2022-12-18T10:51:21;24.15;;;12.10;;
48635;SDS011;34429;52.332;5.614;2022-12-18T10:53:52;22.95;;;12.02;;
48635;SDS011;34429;52.332;5.614;2022-12-18T10:56:29;23.05;;;11.48;;
48635;SDS011;34429;52.332;5.614;2022-12-18T10:59:00;17.35;;;9.98;;
48635;SDS011;34429;52.332;5.614;2022-12-18T11:01:31;21.13;;;11.10;;
48635;SDS011;34429;52.332;5.614;2022-12-18T11:04:16;20.67;;;10.80;;
48635;SDS011;34429;52.332;5.614;2022-12-18T11:06:56;21.80;;;11.95;;
48635;SDS011;34429;52.332;5.614;2022-12-18T11:09:27;24.38;;;11.30;;
48635;SDS011;34429;52.332;5.614;2022-12-18T11:12:00;26.90;;;10.50;;
48635;SDS011;34429;52.332;5.614;2022-12-18T11:14:32;22.17;;;11.10;;
48635;SDS011;34429;52.332;5.614;2022-12-18T11:17:02;22.20;;;11.00;;
48635;SDS011;34429;52.332;5.614;2022-12-18T11:19:32;20.20;;;10.70;;
48635;SDS011;34429;52.332;5.614;2022-12-18T11:22:02;18.90;;;9.98;;
48635;SDS011;34429;52.332;5.614;2022-12-18T11:24:50;20.10;;;9.95;;
48635;SDS011;34429;52.332;5.614;2022-12-18T11:27:23;21.00;;;9.55;;
48635;SDS011;34429;52.332;5.614;2022-12-18T11:29:52;19.30;;;10.52;;
48635;SDS011;34429;52.332;5.614;2022-12-18T11:32:34;18.55;;;9.90;;
48635;SDS011;34429;52.332;5.614;2022-12-18T11:35:11;18.73;;;9.40;;
48635;SDS011;34429;52.332;5.614;2022-12-18T11:37:46;17.10;;;9.15;;
48635;SDS011;34429;52.332;5.614;2022-12-18T11:40:18;20.73;;;10.27;;
48635;SDS011;34429;52.332;5.614;2022-12-18T11:42:57;21.90;;;10.75;;
48635;SDS011;34429;52.332;5.614;2022-12-18T11:45:30;17.80;;;9.02;;
48635;SDS011;34429;52.332;5.614;2022-12-18T11:48:03;18.10;;;9.38;;
48635;SDS011;34429;52.332;5.614;2022-12-18T11:50:41;20.30;;;10.25;;
48635;SDS011;34429;52.332;5.614;2022-12-18T11:53:16;20.07;;;9.10;;
48635;SDS011;34429;52.332;5.614;2022-12-18T11:55:49;17.95;;;9.27;;
48635;SDS011;34429;52.332;5.614;2022-12-18T11:58:30;18.90;;;9.57;;
48635;SDS011;34429;52.332;5.614;2022-12-18T12:01:08;15.65;;;8.93;;
48635;SDS011;34429;52.332;5.614;2022-12-18T12:03:52;18.25;;;8.95;;
48635;SDS011;34429;52.332;5.614;2022-12-18T12:06:33;20.10;;;9.48;;
48635;SDS011;34429;52.332;5.614;2022-12-18T12:09:11;21.45;;;9.20;;
48635;SDS011;34429;52.332;5.614;2022-12-18T12:11:50;18.45;;;8.90;;
48635;SDS011;34429;52.332;5.614;2022-12-18T12:14:35;21.13;;;9.32;;
48635;SDS011;34429;52.332;5.614;2022-12-18T12:17:11;15.98;;;8.65;;
48635;SDS011;34429;52.332;5.614;2022-12-18T12:19:51;21.83;;;9.45;;
48635;SDS011;34429;52.332;5.614;2022-12-18T12:22:30;19.55;;;9.20;;
48635;SDS011;34429;52.332;5.614;2022-12-18T12:25:13;17.38;;;9.45;;
48635;SDS011;34429;52.332;5.614;2022-12-18T12:27:53;18.13;;;8.23;;
48635;SDS011;34429;52.332;5.614;2022-12-18T12:30:35;19.08;;;9.45;;
48635;SDS011;34429;52.332;5.614;2022-12-18T12:33:14;16.20;;;8.70;;
48635;SDS011;34429;52.332;5.614;2022-12-18T12:35:55;15.85;;;8.00;;
48635;SDS011;34429;52.332;5.614;2022-12-18T12:38:32;14.20;;;7.93;;
48635;SDS011;34429;52.332;5.614;2022-12-18T12:41:05;21.45;;;9.57;;
48635;SDS011;34429;52.332;5.614;2022-12-18T12:43:57;17.35;;;8.88;;
48635;SDS011;34429;52.332;5.614;2022-12-18T12:46:28;15.73;;;8.77;;
48635;SDS011;34429;52.332;5.614;2022-12-18T12:49:02;14.02;;;8.40;;
48635;SDS011;34429;52.332;5.614;2022-12-18T12:51:37;20.15;;;9.23;;
48635;SDS011;34429;52.332;5.614;2022-12-18T12:54:11;16.90;;;8.63;;
48635;SDS011;34429;52.332;5.614;2022-12-18T12:56:44;16.95;;;9.55;;
48635;SDS011;34429;52.332;5.614;2022-12-18T12:59:22;18.63;;;8.63;;
48635;SDS011;34429;52.332;5.614;2022-12-18T13:02:03;18.90;;;9.02;;
48635;SDS011;34429;52.332;5.614;2022-12-18T13:04:39;19.17;;;9.90;;
48635;SDS011;34429;52.332;5.614;2022-12-18T13:07:14;17.45;;;9.15;;
48635;SDS011;34429;52.332;5.614;2022-12-18T13:12:54;14.52;;;8.93;;
48635;SDS011;34429;52.332;5.614;2022-12-18T13:15:21;16.30;;;8.65;;
48635;SDS011;34429;52.332;5.614;2022-12-18T13:20:51;16.60;;;9.05;;
48635;SDS011;34429;52.332;5.614;2022-12-18T13:23:32;15.30;;;8.50;;
48635;SDS011;34429;52.332;5.614;2022-12-18T13:29:00;18.58;;;8.43;;
48635;SDS011;34429;52.332;5.614;2022-12-18T13:34:38;16.40;;;9.23;;
48635;SDS011;34429;52.332;5.614;2022-12-18T13:43:24;18.98;;;9.18;;
48635;SDS011;34429;52.332;5.614;2022-12-18T13:46:00;19.73;;;9.25;;
48635;SDS011;34429;52.332;5.614;2022-12-18T13:48:32;15.60;;;8.60;;
48635;SDS011;34429;52.332;5.614;2022-12-18T13:51:06;14.82;;;8.27;;
48635;SDS011;34429;52.332;5.614;2022-12-18T13:53:38;17.35;;;9.52;;
48635;SDS011;34429;52.332;5.614;2022-12-18T13:56:14;19.50;;;9.45;;
48635;SDS011;34429;52.332;5.614;2022-12-18T13:58:44;17.27;;;8.90;;
48635;SDS011;34429;52.332;5.614;2022-12-18T14:01:21;17.08;;;8.63;;
48635;SDS011;34429;52.332;5.614;2022-12-18T14:03:50;16.77;;;8.82;;
48635;SDS011;34429;52.332;5.614;2022-12-18T14:06:37;17.52;;;9.27;;
48635;SDS011;34429;52.332;5.614;2022-12-18T14:09:10;18.98;;;9.52;;
48635;SDS011;34429;52.332;5.614;2022-12-18T14:11:45;18.05;;;8.65;;
48635;SDS011;34429;52.332;5.614;2022-12-18T14:14:15;16.48;;;9.07;;
48635;SDS011;34429;52.332;5.614;2022-12-18T14:19:14;19.95;;;8.98;;
48635;SDS011;34429;52.332;5.614;2022-12-18T14:21:47;18.88;;;9.52;;
48635;SDS011;34429;52.332;5.614;2022-12-18T14:24:19;17.35;;;9.05;;
48635;SDS011;34429;52.332;5.614;2022-12-18T14:26:49;15.93;;;9.00;;
48635;SDS011;34429;52.332;5.614;2022-12-18T14:29:20;19.38;;;8.75;;
48635;SDS011;34429;52.332;5.614;2022-12-18T14:32:07;16.70;;;9.57;;
48635;SDS011;34429;52.332;5.614;2022-12-18T14:34:37;15.80;;;8.85;;
48635;SDS011;34429;52.332;5.614;2022-12-18T14:37:10;19.33;;;9.07;;
48635;SDS011;34429;52.332;5.614;2022-12-18T14:39:40;17.38;;;9.38;;
48635;SDS011;34429;52.332;5.614;2022-12-18T14:42:20;13.80;;;8.77;;
48635;SDS011;34429;52.332;5.614;2022-12-18T14:44:52;16.10;;;8.80;;
48635;SDS011;34429;52.332;5.614;2022-12-18T14:47:56;15.85;;;8.30;;
48635;SDS011;34429;52.332;5.614;2022-12-18T14:50:24;15.35;;;8.20;;
48635;SDS011;34429;52.332;5.614;2022-12-18T14:52:55;20.42;;;9.13;;
48635;SDS011;34429;52.332;5.614;2022-12-18T14:55:24;18.60;;;9.27;;
48635;SDS011;34429;52.332;5.614;2022-12-18T14:57:53;16.70;;;9.35;;
48635;SDS011;34429;52.332;5.614;2022-12-18T15:00:24;19.58;;;10.02;;
48635;SDS011;34429;52.332;5.614;2022-12-18T15:02:54;18.35;;;8.95;;
48635;SDS011;34429;52.332;5.614;2022-12-18T15:05:24;17.90;;;9.65;;
48635;SDS011;34429;52.332;5.614;2022-12-18T15:07:57;17.83;;;9.10;;
48635;SDS011;34429;52.332;5.614;2022-12-18T15:10:28;20.30;;;10.48;;
48635;SDS011;34429;52.332;5.614;2022-12-18T15:13:09;18.30;;;9.50;;
48635;SDS011;34429;52.332;5.614;2022-12-18T15:15:48;18.55;;;9.35;;
48635;SDS011;34429;52.332;5.614;2022-12-18T15:18:17;17.52;;;8.95;;
48635;SDS011;34429;52.332;5.614;2022-12-18T15:20:48;19.10;;;9.25;;
48635;SDS011;34429;52.332;5.614;2022-12-18T15:23:21;21.15;;;9.85;;
48635;SDS011;34429;52.332;5.614;2022-12-18T15:25:55;15.27;;;9.13;;
48635;SDS011;34429;52.332;5.614;2022-12-18T15:28:25;19.33;;;10.25;;
48635;SDS011;34429;52.332;5.614;2022-12-18T15:31:17;21.23;;;8.77;;